Time;durP1;ratioP1;P1;durP2;ratioP2;P2;SDS_P1;SDS_P2;PMS_P1;PMS_P2;Temp;Humidity;BMP_temperature;BMP_pressure;BME280_temperature;BME280_humidity;BME280_pressure;Samples;Min_cycle;Max_cycle;Signal;HPM_P1;HPM_P2
2024/02/03 00:00:08;;;;;;;27.48;20.75;;;;;;;11.59;100.00;98960.91;5029688;28;20028;-59
2024/02/03 00:02:34;;;;;;;36.90;27.65;;;;;;;11.57;100.00;98966.09;5028280;28;20057;-60
2024/02/03 00:04:59;;;;;;;42.25;37.88;;;;;;;11.36;100.00;98961.56;5029370;28;20130;-59
2024/02/03 00:07:24;;;;;;;122.18;110.82;;;;;;;10.87;100.00;98962.81;5029636;28;20029;-58
2024/02/03 00:09:50;;;;;;;72.82;65.47;;;;;;;11.10;100.00;98959.59;5022898;28;20025;-59
2024/02/03 00:12:16;;;;;;;32.45;21.08;;;;;;;11.63;100.00;98956.59;5022606;28;20044;-59
2024/02/03 00:14:41;;;;;;;122.20;109.47;;;;;;;11.13;100.00;98964.84;5026798;28;20448;-58
2024/02/03 00:17:07;;;;;;;26.70;18.17;;;;;;;11.79;100.00;98971.50;5027193;28;20105;-57
2024/02/03 00:19:32;;;;;;;47.10;32.90;;;;;;;11.97;100.00;98970.75;5027400;28;20055;-60
2024/02/03 00:21:58;;;;;;;69.78;52.10;;;;;;;10.96;100.00;98966.38;5023075;28;20033;-58
2024/02/03 00:24:24;;;;;;;46.78;41.85;;;;;;;10.39;100.00;98967.41;5029043;28;20419;-59
2024/02/03 00:26:49;;;;;;;74.68;66.68;;;;;;;10.38;100.00;98969.16;5024764;28;20127;-59
2024/02/03 00:29:14;;;;;;;137.18;125.00;;;;;;;11.11;100.00;98970.88;5028089;28;20267;-60
2024/02/03 00:31:40;;;;;;;64.97;59.20;;;;;;;11.06;100.00;98966.50;5027169;28;20504;-58
2024/02/03 00:34:05;;;;;;;31.23;20.00;;;;;;;10.47;100.00;98971.00;5026914;28;20118;-60
2024/02/03 00:36:30;;;;;;;129.80;116.65;;;;;;;10.38;100.00;98974.34;5026011;28;20519;-61
2024/02/03 00:38:58;;;;;;;40.78;17.75;;;;;;;9.87;100.00;98971.91;5023260;28;20032;-59
2024/02/03 00:41:24;;;;;;;48.92;42.72;;;;;;;10.94;100.00;98969.84;5025800;28;20033;-58
2024/02/03 00:43:50;;;;;;;108.45;95.90;;;;;;;11.32;100.00;98971.09;5022852;28;20557;-59
2024/02/03 00:46:15;;;;;;;28.90;16.85;;;;;;;10.40;100.00;98977.84;5027724;28;20037;-58
2024/02/03 00:48:40;;;;;;;123.32;111.75;;;;;;;11.04;100.00;98967.34;5029945;28;20572;-58
2024/02/03 00:51:09;;;;;;;32.80;17.98;;;;;;;10.27;100.00;98974.22;5025420;28;20069;-56
2024/02/03 00:53:36;;;;;;;41.65;32.28;;;;;;;9.95;100.00;98979.81;5024286;28;20132;-58
2024/02/03 00:56:02;;;;;;;33.55;19.92;;;;;;;9.22;100.00;98978.63;5023486;28;20053;-59
2024/02/03 00:58:28;;;;;;;26.63;15.35;;;;;;;9.79;100.00;98972.66;5026626;28;20029;-59
2024/02/03 01:00:53;;;;;;;33.38;15.60;;;;;;;9.45;100.00;98973.84;5023044;28;20469;-58
2024/02/03 01:03:19;;;;;;;33.28;20.83;;;;;;;9.30;100.00;98974.44;5023467;28;20543;-59
2024/02/03 01:05:44;;;;;;;286.90;259.92;;;;;;;9.92;100.00;98968.50;5019101;28;20091;-58
2024/02/03 01:08:10;;;;;;;32.97;19.17;;;;;;;9.64;100.00;98968.94;5020714;28;20040;-59
2024/02/03 01:10:35;;;;;;;38.95;21.20;;;;;;;9.57;100.00;98972.31;5018046;28;20131;-59
2024/02/03 01:13:01;;;;;;;47.80;27.67;;;;;;;10.50;100.00;98967.63;5017905;28;20103;-59
2024/02/03 01:15:27;;;;;;;38.03;17.52;;;;;;;11.39;100.00;98978.97;5023243;28;20056;-57
2024/02/03 01:17:52;;;;;;;43.45;21.23;;;;;;;10.30;100.00;98986.38;5021506;28;20416;-59
2024/02/03 01:20:18;;;;;;;31.80;16.52;;;;;;;10.80;100.00;98982.69;5020113;28;20101;-59
2024/02/03 01:22:43;;;;;;;36.10;21.80;;;;;;;10.77;100.00;98994.81;5018177;28;20398;-58
2024/02/03 01:25:09;;;;;;;26.13;13.27;;;;;;;10.72;100.00;98988.69;5023352;28;20025;-59
2024/02/03 01:27:34;;;;;;;37.03;20.55;;;;;;;10.96;100.00;98982.91;5020908;28;20123;-58
2024/02/03 01:29:59;;;;;;;44.95;18.20;;;;;;;10.53;100.00;98975.44;5017208;28;20120;-59
2024/02/03 01:32:25;;;;;;;33.45;16.75;;;;;;;10.11;100.00;98969.66;5020541;28;20044;-60
2024/02/03 01:34:50;;;;;;;55.88;29.50;;;;;;;10.87;100.00;98968.03;5020710;28;20037;-59
2024/02/03 01:37:16;;;;;;;131.50;119.75;;;;;;;10.10;100.00;98979.16;5021800;28;20041;-60
2024/02/03 01:39:41;;;;;;;33.60;20.02;;;;;;;10.18;100.00;98975.81;5021153;28;20098;-60
2024/02/03 01:42:07;;;;;;;173.10;157.40;;;;;;;10.11;100.00;98972.25;5016425;28;20505;-59
2024/02/03 01:44:32;;;;;;;35.60;19.77;;;;;;;9.68;100.00;98975.94;5021218;28;20025;-60
2024/02/03 01:46:59;;;;;;;52.08;31.75;;;;;;;10.11;100.00;98974.84;5021349;28;20051;-58
2024/02/03 01:49:28;;;;;;;49.45;35.75;;;;;;;10.43;100.00;98984.81;5022307;28;20571;-59
2024/02/03 01:51:54;;;;;;;47.75;19.45;;;;;;;10.16;100.00;98993.97;5018836;28;20041;-60
2024/02/03 01:54:20;;;;;;;28.48;13.85;;;;;;;9.75;100.00;98993.38;5012283;28;20446;-61
2024/02/03 01:56:48;;;;;;;26.73;15.32;;;;;;;9.59;100.00;98997.47;5021182;28;20040;-59
2024/02/03 01:59:13;;;;;;;32.30;19.77;;;;;;;10.04;100.00;98997.28;5022746;28;20040;-58
2024/02/03 02:01:39;;;;;;;41.95;28.10;;;;;;;9.91;100.00;99001.41;5021003;28;20248;-59
2024/02/03 02:04:04;;;;;;;36.00;19.45;;;;;;;9.56;100.00;99001.69;5020443;28;20017;-60
2024/02/03 02:06:30;;;;;;;37.05;24.17;;;;;;;9.20;100.00;99001.06;5022868;28;20882;-59
2024/02/03 02:08:55;;;;;;;45.72;20.48;;;;;;;9.22;100.00;99002.00;5021539;28;20064;-60
2024/02/03 02:11:21;;;;;;;37.42;18.38;;;;;;;9.33;100.00;98991.78;5021919;28;20501;-60
2024/02/03 02:13:47;;;;;;;33.33;19.90;;;;;;;9.53;100.00;98996.47;5022415;28;20021;-58
2024/02/03 02:16:12;;;;;;;71.68;64.07;;;;;;;9.72;100.00;98997.63;5022920;28;20061;-61
2024/02/03 02:18:38;;;;;;;35.75;17.77;;;;;;;9.84;100.00;99002.16;5021826;28;20026;-58
2024/02/03 02:21:03;;;;;;;57.38;38.67;;;;;;;10.02;100.00;98992.06;5022774;28;20456;-61
2024/02/03 02:23:28;;;;;;;32.22;17.10;;;;;;;9.55;100.00;98989.56;5021447;28;20475;-59
2024/02/03 02:25:55;;;;;;;47.08;22.48;;;;;;;9.46;100.00;98988.56;5018667;28;20045;-58
2024/02/03 02:28:21;;;;;;;39.78;24.95;;;;;;;9.73;100.00;98982.06;5018084;28;20035;-61
2024/02/03 02:30:46;;;;;;;139.07;125.07;;;;;;;9.70;100.00;98976.84;5022824;28;20045;-59
2024/02/03 02:33:12;;;;;;;44.97;28.52;;;;;;;10.15;100.00;98977.53;5017389;28;20017;-60
2024/02/03 02:35:37;;;;;;;66.63;59.53;;;;;;;9.72;100.00;98972.53;5019784;28;20041;-60
2024/02/03 02:38:03;;;;;;;46.75;22.45;;;;;;;9.51;100.00;98975.66;5025369;28;20033;-61
2024/02/03 02:40:28;;;;;;;43.22;18.33;;;;;;;9.30;100.00;98973.56;5024635;28;20041;-59
2024/02/03 02:42:54;;;;;;;43.28;18.92;;;;;;;10.56;100.00;98962.47;5025292;28;20529;-61
2024/02/03 02:45:20;;;;;;;33.45;16.95;;;;;;;10.32;100.00;98966.47;5025063;28;20044;-61
2024/02/03 02:47:45;;;;;;;43.70;21.00;;;;;;;10.64;100.00;98962.56;5024614;28;20114;-62
2024/02/03 02:50:10;;;;;;;107.05;97.20;;;;;;;10.05;100.00;98961.78;5025784;28;20706;-59
2024/02/03 02:52:36;;;;;;;41.13;24.88;;;;;;;9.90;100.00;98958.06;5026625;28;20072;-61
2024/02/03 02:55:02;;;;;;;44.88;22.65;;;;;;;9.54;100.00;98948.88;5020806;28;20025;-58
2024/02/03 02:57:27;;;;;;;47.45;42.42;;;;;;;9.80;100.00;98961.41;5022241;28;20056;-61
2024/02/03 02:59:52;;;;;;;45.10;20.25;;;;;;;9.17;100.00;98947.38;5024360;28;20107;-59
2024/02/03 03:02:18;;;;;;;41.10;20.40;;;;;;;9.48;100.00;98945.34;5019797;28;20471;-61
2024/02/03 03:04:43;;;;;;;50.15;36.40;;;;;;;9.89;100.00;98953.75;5020331;28;20025;-61
2024/02/03 03:07:09;;;;;;;45.00;40.33;;;;;;;10.21;100.00;98957.66;5020602;28;21442;-59
2024/02/03 03:09:34;;;;;;;51.38;31.55;;;;;;;9.88;100.00;98963.25;5026454;28;20032;-60
2024/02/03 03:11:59;;;;;;;59.10;45.13;;;;;;;9.30;100.00;98974.44;5024520;28;20036;-61
2024/02/03 03:14:25;;;;;;;36.45;20.15;;;;;;;9.40;100.00;98969.41;5023203;28;20021;-59
2024/02/03 03:16:50;;;;;;;48.67;27.83;;;;;;;9.83;100.00;98966.66;5022574;28;20124;-58
2024/02/03 03:19:15;;;;;;;37.25;22.85;;;;;;;9.95;100.00;98969.41;5020386;28;20095;-59
2024/02/03 03:21:41;;;;;;;36.90;20.35;;;;;;;9.90;100.00;98973.66;5021088;28;20045;-59
2024/02/03 03:24:06;;;;;;;57.28;31.23;;;;;;;9.56;100.00;98966.22;5021975;28;20040;-60
2024/02/03 03:26:32;;;;;;;129.20;116.47;;;;;;;9.82;100.00;98967.47;5024616;28;20065;-59
2024/02/03 03:28:57;;;;;;;54.70;27.17;;;;;;;10.96;100.00;98971.59;5026224;28;20022;-61
2024/02/03 03:31:23;;;;;;;50.45;36.85;;;;;;;9.96;100.00;98986.78;5023299;28;20209;-58
2024/02/03 03:33:48;;;;;;;37.63;18.00;;;;;;;10.24;100.00;98986.31;5024904;28;20041;-60
2024/02/03 03:36:13;;;;;;;38.47;23.95;;;;;;;9.58;100.00;98984.44;5023108;28;20037;-59
2024/02/03 03:38:42;;;;;;;41.45;21.55;;;;;;;9.45;100.00;98984.22;5024045;28;20010;-59
2024/02/03 03:41:11;;;;;;;52.05;25.33;;;;;;;9.75;100.00;98988.19;5024393;28;20037;-58
2024/02/03 03:43:37;;;;;;;39.42;20.48;;;;;;;9.19;100.00;98983.75;5025742;28;20036;-59
2024/02/03 03:46:04;;;;;;;52.20;24.90;;;;;;;9.17;100.00;98990.66;5021783;28;20033;-60
2024/02/03 03:48:29;;;;;;;84.35;76.32;;;;;;;10.05;100.00;98987.78;5023308;28;20021;-59
2024/02/03 03:50:54;;;;;;;44.50;25.00;;;;;;;10.24;100.00;98991.50;5021479;28;20409;-57
2024/02/03 03:53:19;;;;;;;73.93;66.43;;;;;;;9.64;100.00;98993.19;5024047;28;20472;-58
2024/02/03 03:55:45;;;;;;;48.30;33.60;;;;;;;9.50;100.00;98999.88;5022816;28;20079;-59
2024/02/03 03:58:11;;;;;;;88.85;76.20;;;;;;;9.68;100.00;98991.53;5020340;28;20045;-58
2024/02/03 04:00:36;;;;;;;40.25;21.05;;;;;;;10.45;100.00;98998.75;5022029;28;20049;-59
2024/02/03 04:03:01;;;;;;;53.67;25.98;;;;;;;9.84;100.00;98996.97;5020875;28;20025;-59
2024/02/03 04:05:27;;;;;;;39.83;21.48;;;;;;;10.48;100.00;98997.91;5021981;28;20037;-59
2024/02/03 04:07:52;;;;;;;45.00;24.77;;;;;;;10.24;100.00;99002.75;5023858;28;20104;-58
2024/02/03 04:10:17;;;;;;;37.85;21.08;;;;;;;9.91;100.00;98988.41;5018714;28;20040;-60
2024/02/03 04:12:44;;;;;;;39.25;19.85;;;;;;;9.74;100.00;99001.16;5021591;28;20485;-58
2024/02/03 04:15:09;;;;;;;51.90;23.08;;;;;;;9.57;100.00;98993.09;5008770;28;20021;-60
2024/02/03 04:17:36;;;;;;;42.28;24.58;;;;;;;10.38;100.00;98997.75;5025295;28;20332;-60
2024/02/03 04:20:02;;;;;;;80.43;65.65;;;;;;;9.99;100.00;98998.94;5020597;28;20727;-58
2024/02/03 04:22:27;;;;;;;46.85;27.90;;;;;;;9.65;100.00;98994.06;5022492;28;20364;-58
2024/02/03 04:24:53;;;;;;;84.68;73.38;;;;;;;10.17;100.00;98995.72;5022844;28;20040;-61
2024/02/03 04:27:19;;;;;;;75.78;41.13;;;;;;;10.33;100.00;98998.53;5021722;28;20037;-60
2024/02/03 04:29:44;;;;;;;85.82;66.53;;;;;;;9.69;100.00;98998.47;5025467;28;20109;-59
2024/02/03 04:32:12;;;;;;;67.40;45.47;;;;;;;9.83;100.00;99000.44;5023646;28;20065;-58
2024/02/03 04:34:37;;;;;;;123.43;111.35;;;;;;;9.45;100.00;98997.22;5022524;28;20548;-59
2024/02/03 04:37:03;;;;;;;76.03;45.03;;;;;;;10.03;100.00;99003.34;5020591;28;20068;-58
2024/02/03 04:39:28;;;;;;;62.63;33.47;;;;;;;10.67;100.00;99002.50;5021800;28;20029;-58
2024/02/03 04:41:53;;;;;;;262.33;215.80;;;;;;;11.29;100.00;99001.47;5019743;28;20367;-58
2024/02/03 04:44:19;;;;;;;95.85;58.13;;;;;;;11.61;100.00;98984.38;5019939;28;20037;-57
2024/02/03 04:46:45;;;;;;;95.13;39.15;;;;;;;11.47;100.00;98985.09;5023365;28;20045;-62
2024/02/03 04:49:10;;;;;;;77.90;31.50;;;;;;;10.97;100.00;98987.22;5020924;28;20409;-60
2024/02/03 04:51:35;;;;;;;60.80;28.15;;;;;;;9.77;100.00;98981.28;5022446;28;20042;-61
2024/02/03 04:54:01;;;;;;;139.65;114.53;;;;;;;10.02;100.00;98986.84;5024629;28;20547;-60
2024/02/03 04:56:26;;;;;;;57.42;29.58;;;;;;;10.00;100.00;98982.50;5022583;28;20061;-61
2024/02/03 04:58:51;;;;;;;63.42;33.08;;;;;;;10.45;100.00;98980.53;5020057;28;20061;-59
2024/02/03 05:01:17;;;;;;;53.83;32.78;;;;;;;10.24;100.00;98983.72;5017680;28;20125;-60
2024/02/03 05:03:42;;;;;;;61.78;43.75;;;;;;;10.07;100.00;98983.44;5022412;28;20032;-59
2024/02/03 05:06:07;;;;;;;130.55;117.18;;;;;;;9.86;100.00;98982.28;5020241;28;20536;-58
2024/02/03 05:08:34;;;;;;;66.75;36.85;;;;;;;9.96;100.00;98991.97;5023055;28;20025;-59
2024/02/03 05:11:00;;;;;;;63.33;29.80;;;;;;;9.76;100.00;98986.44;5020089;28;20049;-62
2024/02/03 05:13:26;;;;;;;120.82;93.32;;;;;;;11.06;100.00;98991.66;5022249;28;20264;-59
2024/02/03 05:15:51;;;;;;;56.63;26.95;;;;;;;9.90;100.00;98981.47;5022235;28;20039;-60
2024/02/03 05:18:17;;;;;;;47.70;28.35;;;;;;;11.33;100.00;98974.59;5021418;28;20314;-59
2024/02/03 05:20:42;;;;;;;70.75;37.42;;;;;;;9.88;100.00;98985.78;5026220;28;20044;-58
2024/02/03 05:23:07;;;;;;;66.00;28.92;;;;;;;10.14;100.00;98980.94;5020561;28;20025;-60
2024/02/03 05:25:33;;;;;;;60.70;44.58;;;;;;;9.94;100.00;98987.59;5019362;28;20057;-58
2024/02/03 05:27:58;;;;;;;81.45;60.45;;;;;;;10.68;100.00;98988.66;5021452;28;20119;-58
2024/02/03 05:30:23;;;;;;;52.33;28.30;;;;;;;9.95;100.00;98997.13;5021619;28;20029;-59
2024/02/03 05:32:49;;;;;;;69.90;62.45;;;;;;;9.54;100.00;98986.09;5022165;28;20021;-59
2024/02/03 05:35:14;;;;;;;51.95;21.10;;;;;;;10.23;100.00;98993.22;5024186;28;20443;-59
2024/02/03 05:37:40;;;;;;;43.88;21.67;;;;;;;9.56;100.00;99002.59;5021114;28;20136;-60
2024/02/03 05:40:06;;;;;;;66.43;38.22;;;;;;;9.56;100.00;99001.69;5021123;28;20655;-60
2024/02/03 05:42:31;;;;;;;65.20;58.20;;;;;;;9.18;100.00;99003.66;5021633;28;20111;-59
2024/02/03 05:44:58;;;;;;;169.48;155.48;;;;;;;9.74;100.00;99008.94;5023059;28;20111;-59
2024/02/03 05:47:23;;;;;;;109.97;96.93;;;;;;;10.67;100.00;99012.03;5019142;28;20052;-58
2024/02/03 05:49:49;;;;;;;61.80;31.42;;;;;;;10.81;100.00;99015.69;5022696;28;20021;-58
2024/02/03 05:52:14;;;;;;;149.23;122.80;;;;;;;10.26;100.00;99016.69;5021237;28;20652;-60
2024/02/03 05:54:39;;;;;;;144.93;128.57;;;;;;;9.74;100.00;99016.72;5020470;28;20025;-59
2024/02/03 05:57:07;;;;;;;58.75;24.02;;;;;;;9.81;100.00;99022.91;5020271;28;20146;-60
2024/02/03 05:59:33;;;;;;;64.43;28.10;;;;;;;10.22;100.00;99020.09;5020130;28;20515;-59
2024/02/03 06:01:58;;;;;;;52.78;35.47;;;;;;;10.37;100.00;99026.34;5022271;28;20500;-59
2024/02/03 06:04:23;;;;;;;45.03;28.38;;;;;;;9.35;100.00;99016.03;5019425;28;20037;-59
2024/02/03 06:06:49;;;;;;;73.25;62.38;;;;;;;10.42;100.00;99024.69;5017605;28;20033;-58
2024/02/03 06:09:14;;;;;;;41.25;20.45;;;;;;;9.94;100.00;99024.84;5018776;28;20022;-60
2024/02/03 06:11:39;;;;;;;41.15;25.65;;;;;;;10.06;100.00;99024.16;5023263;28;20038;-59
2024/02/03 06:14:05;;;;;;;53.95;19.90;;;;;;;8.88;100.00;99017.78;5024534;28;20036;-61
2024/02/03 06:16:30;;;;;;;38.17;20.20;;;;;;;9.26;100.00;99029.75;5022876;28;20048;-58
2024/02/03 06:18:55;;;;;;;36.13;24.80;;;;;;;9.75;100.00;99021.97;5028127;28;20028;-59
2024/02/03 06:21:21;;;;;;;44.80;25.52;;;;;;;9.45;100.00;99028.38;5024706;28;20037;-58
2024/02/03 06:23:46;;;;;;;36.90;19.48;;;;;;;9.28;100.00;99024.59;5026812;28;20045;-58
2024/02/03 06:26:11;;;;;;;44.03;17.33;;;;;;;8.88;100.00;99027.28;5024653;28;20075;-56
2024/02/03 06:28:37;;;;;;;35.50;18.23;;;;;;;8.61;100.00;99033.66;5026200;28;20033;-58
2024/02/03 06:31:02;;;;;;;45.80;19.95;;;;;;;8.43;100.00;99027.19;5026305;28;20041;-60
2024/02/03 06:33:27;;;;;;;40.33;20.23;;;;;;;8.31;100.00;99040.75;5023762;28;20036;-58
2024/02/03 06:35:53;;;;;;;36.13;31.27;;;;;;;8.43;100.00;99033.25;5024570;28;20401;-58
2024/02/03 06:38:18;;;;;;;45.05;22.58;;;;;;;8.29;100.00;99042.44;5026033;28;20502;-56
2024/02/03 06:40:43;;;;;;;32.78;20.25;;;;;;;8.11;100.00;99037.69;5025232;28;20056;-57
2024/02/03 06:43:09;;;;;;;53.10;20.42;;;;;;;7.76;100.00;99036.88;5026938;28;20199;-58
2024/02/03 06:45:34;;;;;;;43.50;24.50;;;;;;;8.14;100.00;99038.66;5024276;28;20041;-58
2024/02/03 06:48:00;;;;;;;46.95;33.50;;;;;;;7.76;100.00;99041.19;5024443;28;20025;-58
2024/02/03 06:50:25;;;;;;;45.83;23.45;;;;;;;7.92;100.00;99037.25;5023181;28;20045;-59
2024/02/03 06:52:50;;;;;;;44.38;26.50;;;;;;;7.88;100.00;99041.50;5027891;28;20436;-59
2024/02/03 06:55:16;;;;;;;47.78;25.05;;;;;;;7.86;100.00;99048.34;5021823;28;20079;-58
2024/02/03 06:57:41;;;;;;;54.05;26.42;;;;;;;7.88;100.00;99049.28;5024135;28;20441;-58
2024/02/03 07:00:10;;;;;;;45.20;26.63;;;;;;;7.72;100.00;99052.31;5025811;28;20020;-57
2024/02/03 07:02:35;;;;;;;46.83;24.27;;;;;;;7.58;100.00;99047.66;5024118;28;20100;-57
2024/02/03 07:05:00;;;;;;;42.10;25.70;;;;;;;7.48;100.00;99050.81;5024107;28;20025;-58
2024/02/03 07:07:26;;;;;;;41.88;22.42;;;;;;;7.61;100.00;99055.47;5004882;28;20040;-57
2024/02/03 07:09:55;;;;;;;48.38;23.30;;;;;;;7.69;100.00;99056.56;5004040;28;20034;-57
2024/02/03 07:12:21;;;;;;;54.55;23.50;;;;;;;7.91;100.00;99046.72;5015680;28;20037;-57
2024/02/03 07:14:46;;;;;;;49.95;28.30;;;;;;;7.83;100.00;99048.25;5019375;28;20402;-56
2024/02/03 07:17:11;;;;;;;59.85;25.55;;;;;;;7.77;100.00;99048.13;5024216;28;20033;-56
2024/02/03 07:19:37;;;;;;;56.70;42.45;;;;;;;8.12;100.00;99050.69;5024019;28;20540;-56
2024/02/03 07:22:02;;;;;;;49.42;29.20;;;;;;;7.80;100.00;99048.19;5025052;28;20436;-55
2024/02/03 07:24:29;;;;;;;47.53;27.45;;;;;;;7.82;100.00;99047.41;5024651;28;20022;-56
2024/02/03 07:26:54;;;;;;;61.65;28.20;;;;;;;7.77;100.00;99054.19;5022212;28;20063;-57
2024/02/03 07:29:20;;;;;;;67.85;26.30;;;;;;;7.55;100.00;99045.88;5023519;28;20013;-57
2024/02/03 07:31:45;;;;;;;56.45;36.58;;;;;;;7.87;100.00;99050.09;5022856;28;20040;-56
2024/02/03 07:34:10;;;;;;;58.10;26.63;;;;;;;8.08;100.00;99046.28;5023720;28;20110;-58
2024/02/03 07:36:35;;;;;;;62.75;55.67;;;;;;;7.86;100.00;99043.16;5024199;28;20099;-56
2024/02/03 07:39:03;;;;;;;58.50;27.23;;;;;;;7.79;100.00;99044.72;5024357;28;20239;-56
2024/02/03 07:41:29;;;;;;;47.83;28.23;;;;;;;7.90;100.00;99041.50;5023089;28;20038;-56
2024/02/03 07:43:54;;;;;;;63.17;31.85;;;;;;;8.17;100.00;99043.03;5027985;28;20100;-57
2024/02/03 07:46:19;;;;;;;73.93;45.70;;;;;;;8.40;100.00;99051.34;5019703;28;20036;-58
2024/02/03 07:48:45;;;;;;;53.90;22.73;;;;;;;8.25;100.00;99044.09;5021965;28;20037;-58
2024/02/03 07:51:10;;;;;;;61.63;25.55;;;;;;;8.02;100.00;99046.13;5022379;28;20097;-56
2024/02/03 07:53:35;;;;;;;46.30;22.52;;;;;;;7.74;100.00;99048.03;5024589;28;20044;-58
2024/02/03 07:56:01;;;;;;;62.00;46.95;;;;;;;8.15;100.00;99045.59;5022520;28;20033;-56
2024/02/03 07:58:26;;;;;;;74.00;28.75;;;;;;;8.02;100.00;99046.13;5021501;28;20423;-56
2024/02/03 08:00:51;;;;;;;57.70;26.95;;;;;;;8.45;100.00;99046.25;5022805;28;20036;-56
2024/02/03 08:03:17;;;;;;;73.55;29.13;;;;;;;8.05;100.00;99053.97;5022347;28;20024;-57
2024/02/03 08:05:42;;;;;;;55.45;28.63;;;;;;;7.92;100.00;99043.31;5023090;28;20087;-57
2024/02/03 08:08:08;;;;;;;62.38;26.88;;;;;;;7.78;100.00;99047.28;5021662;28;20017;-56
2024/02/03 08:10:33;;;;;;;54.85;25.58;;;;;;;8.03;100.00;99047.88;5020084;28;20052;-56
2024/02/03 08:12:58;;;;;;;60.20;28.15;;;;;;;8.26;100.00;99042.34;5022600;28;20032;-55
2024/02/03 08:15:25;;;;;;;64.10;30.52;;;;;;;8.76;100.00;99033.97;5020876;28;20321;-56
2024/02/03 08:17:50;;;;;;;105.13;95.30;;;;;;;8.73;100.00;99041.69;5023140;28;20529;-56
2024/02/03 08:20:16;;;;;;;72.88;41.97;;;;;;;8.66;100.00;99043.28;5021144;28;20356;-58
2024/02/03 08:22:41;;;;;;;60.58;41.97;;;;;;;8.73;100.00;99037.38;5023164;28;20022;-57
2024/02/03 08:25:07;;;;;;;106.82;96.40;;;;;;;8.81;100.00;99047.03;5022151;28;20021;-56
2024/02/03 08:27:33;;;;;;;68.53;57.50;;;;;;;8.76;100.00;99040.88;5019200;28;20025;-56
2024/02/03 08:29:58;;;;;;;51.25;30.48;;;;;;;8.52;100.00;99044.66;5021385;28;20017;-57
2024/02/03 08:32:26;;;;;;;56.20;25.85;;;;;;;8.62;100.00;99040.59;5021181;28;20072;-56
2024/02/03 08:34:52;;;;;;;47.75;39.58;;;;;;;8.61;100.00;99047.47;5024899;28;20136;-57
2024/02/03 08:37:17;;;;;;;58.50;22.17;;;;;;;8.71;100.00;99048.56;5020971;28;20124;-56
2024/02/03 08:39:43;;;;;;;40.28;23.35;;;;;;;9.03;100.00;99057.84;5026614;28;20029;-58
2024/02/03 08:42:08;;;;;;;36.33;21.48;;;;;;;8.72;100.00;99048.59;5022671;28;20128;-56
2024/02/03 08:44:34;;;;;;;48.28;26.23;;;;;;;9.60;100.00;99051.16;5020373;28;20043;-56
2024/02/03 08:46:59;;;;;;;39.38;25.95;;;;;;;9.72;100.00;99052.19;5020683;28;20645;-59
2024/02/03 08:49:27;;;;;;;67.20;46.33;;;;;;;9.22;100.00;99059.09;5020491;28;20556;-56
2024/02/03 08:51:52;;;;;;;45.63;33.80;;;;;;;9.38;100.00;99048.16;5023035;28;20037;-57
2024/02/03 08:54:18;;;;;;;45.15;20.60;;;;;;;8.59;100.00;99044.88;5020783;28;20028;-57
2024/02/03 08:56:43;;;;;;;31.90;19.65;;;;;;;9.56;100.00;99051.06;5022973;28;20052;-56
2024/02/03 08:59:08;;;;;;;58.30;51.80;;;;;;;10.31;100.00;99050.53;5024342;28;20053;-57
2024/02/03 09:01:34;;;;;;;39.42;22.95;;;;;;;10.09;100.00;99054.56;5015103;28;20127;-57
2024/02/03 09:03:59;;;;;;;33.58;27.38;;;;;;;10.26;100.00;99047.00;5027370;28;20488;-58
2024/02/03 09:06:24;;;;;;;49.50;21.92;;;;;;;10.26;100.00;99054.78;5021729;28;20507;-57
2024/02/03 09:08:51;;;;;;;36.45;30.83;;;;;;;10.29;100.00;99060.91;5026064;28;20051;-56
2024/02/03 09:11:16;;;;;;;31.33;21.00;;;;;;;10.54;100.00;99065.63;5024781;28;20497;-56
2024/02/03 09:13:42;;;;;;;27.73;16.33;;;;;;;10.15;100.00;99065.03;5025376;28;20060;-55
2024/02/03 09:16:07;;;;;;;33.00;24.10;;;;;;;10.48;100.00;99069.03;5027127;28;20040;-57
2024/02/03 09:18:33;;;;;;;31.08;26.67;;;;;;;11.49;100.00;99066.78;5027039;28;20105;-57
2024/02/03 09:20:58;;;;;;;36.35;18.33;;;;;;;11.33;100.00;99063.13;5024456;28;20405;-56
2024/02/03 09:23:24;;;;;;;58.95;51.58;;;;;;;11.06;100.00;99057.63;5025371;28;20087;-57
2024/02/03 09:25:49;;;;;;;47.42;39.58;;;;;;;10.57;100.00;99064.81;5023025;28;20079;-56
2024/02/03 09:28:14;;;;;;;52.45;43.53;;;;;;;11.26;100.00;99058.72;5023591;28;20434;-56
2024/02/03 09:30:40;;;;;;;25.08;16.13;;;;;;;11.11;100.00;99067.22;5024341;28;20037;-56
2024/02/03 09:33:05;;;;;;;40.42;34.00;;;;;;;10.37;100.00;99066.25;5023568;28;20137;-57
2024/02/03 09:35:30;;;;;;;64.47;43.10;;;;;;;10.56;100.00;99066.53;5024459;28;20136;-57
2024/02/03 09:37:56;;;;;;;66.03;59.05;;;;;;;10.48;100.00;99063.81;5023020;28;20108;-57
2024/02/03 09:40:21;;;;;;;54.70;42.47;;;;;;;10.74;100.00;99057.22;5024105;28;20436;-57
2024/02/03 09:42:48;;;;;;;35.10;17.50;;;;;;;10.45;100.00;99062.88;5022854;28;20017;-57
2024/02/03 09:45:14;;;;;;;27.10;20.95;;;;;;;10.42;100.00;99058.50;5022689;28;20549;-57
2024/02/03 09:47:41;;;;;;;29.58;15.63;;;;;;;10.82;100.00;99055.59;5026341;28;20027;-59
2024/02/03 09:50:07;;;;;;;39.35;18.17;;;;;;;10.39;100.00;99063.63;5023500;28;20027;-61
2024/02/03 09:52:33;;;;;;;48.38;19.60;;;;;;;9.67;100.00;99059.03;5026042;28;20041;-57
2024/02/03 09:54:59;;;;;;;33.08;18.38;;;;;;;9.73;100.00;99059.16;5026544;28;20028;-60
2024/02/03 09:57:25;;;;;;;49.35;26.48;;;;;;;10.31;100.00;99067.88;5026401;28;20033;-57
2024/02/03 09:59:51;;;;;;;91.03;81.72;;;;;;;10.65;100.00;99060.59;5023116;28;20032;-58
2024/02/03 10:02:17;;;;;;;31.23;19.42;;;;;;;9.83;100.00;99066.25;5022678;28;20041;-55
2024/02/03 10:04:45;;;;;;;96.40;87.28;;;;;;;9.89;100.00;99052.50;5020740;28;20071;-58
2024/02/03 10:07:11;;;;;;;81.95;74.95;;;;;;;9.92;100.00;99052.56;5025535;28;20091;-57
2024/02/03 10:09:36;;;;;;;190.68;171.90;;;;;;;10.10;100.00;99053.69;5022675;28;20025;-58
2024/02/03 10:12:02;;;;;;;47.42;33.00;;;;;;;11.59;100.00;99052.13;5029522;28;20060;-57
2024/02/03 10:14:28;;;;;;;85.65;59.95;;;;;;;11.10;100.00;99062.88;5026364;28;20048;-58
2024/02/03 10:16:53;;;;;;;143.45;131.40;;;;;;;11.02;100.00;99049.78;5025543;28;20056;-58
2024/02/03 10:19:22;;;;;;;60.72;41.28;;;;;;;10.62;100.00;99056.19;5024644;28;20029;-58
2024/02/03 10:21:49;;;;;;;102.82;91.85;;;;;;;10.92;100.00;99048.78;5025377;28;20037;-58
2024/02/03 10:24:26;;;;;;;58.28;52.10;;;;;;;10.70;100.00;99050.22;5026771;28;20550;-57
2024/02/03 10:27:01;;;;;;;144.63;132.85;;;;;;;11.00;100.00;99051.47;5025487;28;20037;-58
2024/02/03 10:29:28;;;;;;;48.00;22.40;;;;;;;10.31;100.00;99052.28;5019139;28;20071;-57
2024/02/03 10:31:53;;;;;;;68.65;60.70;;;;;;;11.85;100.00;99064.50;5028726;28;20033;-58
2024/02/03 10:34:20;;;;;;;37.53;27.40;;;;;;;11.66;100.00;99059.09;5026265;28;20033;-58
2024/02/03 10:36:45;;;;;;;41.90;35.97;;;;;;;12.74;100.00;99058.16;5017872;28;20026;-58
2024/02/03 10:39:10;;;;;;;70.18;63.47;;;;;;;12.65;100.00;99065.09;5028120;28;20313;-58
2024/02/03 10:41:39;;;;;;;38.65;15.43;;;;;;;12.21;100.00;99054.41;5026773;28;20561;-57
2024/02/03 10:44:07;;;;;;;102.35;92.38;;;;;;;12.31;100.00;99048.38;5027235;28;20606;-57
2024/02/03 10:46:40;;;;;;;32.53;12.50;;;;;;;11.53;100.00;99058.13;5024361;28;20681;-58
2024/02/03 10:49:12;;;;;;;28.75;17.95;;;;;;;11.73;100.00;99052.22;5024287;28;20056;-58
2024/02/03 10:51:39;;;;;;;107.88;98.80;;;;;;;10.97;100.00;99041.91;5023963;28;20057;-58
2024/02/03 10:54:09;;;;;;;26.88;17.70;;;;;;;10.88;100.00;99044.41;5025007;28;20037;-57
2024/02/03 10:56:37;;;;;;;39.10;20.77;;;;;;;11.45;100.00;99045.03;5025341;28;20072;-57
2024/02/03 10:59:05;;;;;;;21.13;13.23;;;;;;;11.68;100.00;99040.88;5031663;28;20485;-56
2024/02/03 11:01:36;;;;;;;36.30;22.48;;;;;;;11.58;100.00;99039.94;5030956;28;20107;-58
2024/02/03 11:04:04;;;;;;;25.75;20.77;;;;;;;11.66;100.00;99037.41;5031112;28;20453;-57